Querinda Park, New Mexico
Current Conditions -  °F | °C
As of 8:35 PM on Friday 28 Nov 2014 (Local Time) from KAXX Reporting Station
Clear Clear  
Wind Chill: 30°   Ceiling: Unl
Heat Index: 38°   Visibility: 10mi
Dew Point: 15°   Wind: 13mph
Humidity: 41%   Direction: 160°SSE
Pressure: 30.13"   Gusts: 17mph
Location:  36.7124°N, 105.403°W
Report Text: KAXX 290335Z AUTO 16011G15KT 10SM CLR 03/M09 A3013 RMK AO2 T00311092
Loading
Personal Weather Stations






























Interactive Weather Map New forecast layout! Learn more

10-Day Weather Forecast

Advertisements
Track Severe Weather on mobile